createdAt,value
2022-08-16T00:00:03.692Z,14.45
2022-08-16T00:02:33.853Z,15.13
2022-08-16T00:05:02.364Z,14.68
2022-08-16T00:07:30.738Z,16.92
2022-08-16T00:10:07.748Z,14.00
2022-08-16T00:12:35.725Z,16.67
2022-08-16T00:15:11.533Z,18.95
2022-08-16T00:17:56.536Z,16.17
2022-08-16T00:20:24.879Z,16.67
2022-08-16T00:22:52.714Z,15.75
2022-08-16T00:25:49.589Z,16.92
2022-08-16T00:28:10.003Z,16.02
2022-08-16T00:30:38.755Z,16.65
2022-08-16T00:33:07.405Z,17.17
2022-08-16T00:35:37.524Z,18.58
2022-08-16T00:38:41.045Z,18.02
2022-08-16T00:40:55.155Z,20.00
2022-08-16T00:43:43.245Z,18.67
2022-08-16T00:46:33.752Z,19.95
2022-08-16T00:49:05.646Z,18.38
2022-08-16T00:51:33.803Z,18.02
2022-08-16T00:54:02.547Z,25.25
2022-08-16T00:56:57.921Z,16.17
2022-08-16T00:59:25.034Z,17.10
2022-08-16T01:01:53.252Z,18.45
2022-08-16T01:04:29.479Z,20.42
2022-08-16T01:07:01.736Z,17.77
2022-08-16T01:09:37.323Z,21.00
2022-08-16T01:12:10.716Z,20.95
2022-08-16T01:14:47.169Z,20.60
2022-08-16T01:17:17.687Z,20.98
2022-08-16T01:19:52.972Z,20.33
2022-08-16T01:22:50.189Z,19.02
2022-08-16T01:25:33.993Z,22.30
2022-08-16T01:28:07.490Z,21.50
2022-08-16T01:30:40.000Z,19.42
2022-08-16T01:33:19.675Z,21.83
2022-08-16T01:35:58.103Z,17.65
2022-08-16T01:38:36.356Z,18.73
2022-08-16T01:41:10.192Z,20.20
2022-08-16T01:43:40.019Z,21.60
2022-08-16T01:46:37.156Z,20.88
2022-08-16T01:49:43.301Z,22.60
2022-08-16T01:52:27.710Z,22.45
2022-08-16T01:55:16.594Z,22.58
2022-08-16T01:57:53.257Z,20.63
2022-08-16T02:00:29.280Z,20.35
2022-08-16T02:02:58.431Z,24.08
2022-08-16T02:05:25.785Z,22.38
2022-08-16T02:07:59.121Z,21.30
2022-08-16T02:10:27.185Z,30.02
2022-08-16T02:13:00.480Z,21.83
2022-08-16T02:15:30.604Z,22.50
2022-08-16T02:18:01.152Z,24.88
2022-08-16T02:20:39.439Z,21.92
2022-08-16T02:23:10.596Z,25.20
2022-08-16T02:25:51.129Z,22.58
2022-08-16T02:28:23.649Z,24.35
2022-08-16T02:30:52.348Z,26.48
2022-08-16T02:33:24.998Z,30.92
2022-08-16T02:36:48.293Z,23.70
2022-08-16T02:39:06.571Z,26.70
2022-08-16T02:41:39.408Z,24.90
2022-08-16T02:44:08.305Z,28.65
2022-08-16T02:46:36.950Z,25.00
2022-08-16T02:49:07.315Z,26.00
2022-08-16T02:51:36.761Z,25.38
2022-08-16T02:54:05.892Z,27.92
2022-08-16T02:56:36.598Z,26.35
2022-08-16T02:59:11.509Z,26.00
2022-08-16T03:01:42.707Z,29.15
2022-08-16T03:04:30.132Z,27.33
2022-08-16T03:07:06.246Z,26.83
2022-08-16T03:09:51.692Z,28.00
2022-08-16T03:12:38.445Z,26.60
2022-08-16T03:15:13.622Z,28.05
2022-08-16T03:17:53.290Z,30.77
2022-08-16T03:20:32.408Z,27.38
2022-08-16T03:23:02.281Z,25.95
2022-08-16T03:25:40.820Z,26.17
2022-08-16T03:28:12.026Z,27.80
2022-08-16T03:30:41.959Z,24.88
2022-08-16T03:33:11.307Z,30.63
2022-08-16T03:35:48.047Z,25.52
2022-08-16T03:38:32.851Z,31.35
2022-08-16T03:41:14.174Z,29.67
2022-08-16T03:43:54.858Z,25.10
2022-08-16T03:46:47.236Z,30.45
2022-08-16T03:49:14.116Z,31.40
2022-08-16T03:51:44.714Z,27.58
2022-08-16T03:54:19.265Z,30.15
2022-08-16T03:56:56.653Z,26.58
2022-08-16T03:59:29.608Z,28.98
2022-08-16T04:02:04.202Z,28.83
2022-08-16T04:04:40.366Z,26.70
2022-08-16T04:07:09.210Z,28.35
2022-08-16T04:09:40.323Z,28.90
2022-08-16T04:12:52.455Z,28.88
2022-08-16T04:15:02.377Z,29.58
2022-08-16T04:17:35.113Z,29.42
2022-08-16T04:20:23.204Z,28.35
2022-08-16T04:22:56.278Z,28.30
2022-08-16T04:25:26.291Z,25.80
2022-08-16T04:27:56.017Z,27.13
2022-08-16T04:30:32.432Z,28.17
2022-08-16T04:33:04.380Z,29.23
2022-08-16T04:35:34.609Z,24.58
2022-08-16T04:38:20.609Z,26.48
2022-08-16T04:40:49.926Z,27.67
2022-08-16T04:43:18.803Z,26.35
2022-08-16T04:45:47.404Z,29.52
2022-08-16T04:48:32.706Z,26.10
2022-08-16T04:51:12.409Z,26.30
2022-08-16T04:53:48.891Z,27.63
2022-08-16T04:56:19.801Z,24.73
2022-08-16T04:58:47.680Z,27.00
2022-08-16T05:01:18.381Z,24.95
2022-08-16T05:03:59.716Z,24.83
2022-08-16T05:06:42.322Z,23.77
2022-08-16T05:09:36.398Z,26.42
2022-08-16T05:12:04.963Z,27.88
2022-08-16T05:14:45.636Z,26.30
2022-08-16T05:17:18.030Z,27.08
2022-08-16T05:19:46.530Z,24.30
2022-08-16T05:22:24.904Z,24.60
2022-08-16T05:24:59.172Z,27.85
2022-08-16T05:27:26.497Z,23.67
2022-08-16T05:30:00.808Z,21.88
2022-08-16T05:32:36.340Z,24.73
2022-08-16T05:35:11.484Z,27.60
2022-08-16T05:37:45.460Z,25.35
2022-08-16T05:40:16.547Z,23.95
2022-08-16T05:42:49.439Z,24.48
2022-08-16T05:45:21.954Z,26.25
2022-08-16T05:47:59.714Z,25.83
2022-08-16T05:50:34.196Z,23.55
2022-08-16T05:53:02.860Z,24.45
2022-08-16T05:55:30.334Z,25.48
2022-08-16T05:58:03.301Z,22.83
2022-08-16T06:00:31.453Z,27.67
2022-08-16T06:02:58.770Z,19.73
2022-08-16T06:05:50.848Z,21.50
2022-08-16T06:08:31.936Z,26.60
2022-08-16T06:11:10.446Z,22.58
2022-08-16T06:16:18.246Z,24.23
2022-08-16T06:18:50.549Z,24.92
2022-08-16T06:21:23.838Z,19.75
2022-08-16T06:23:57.830Z,21.63
2022-08-16T06:26:34.761Z,21.58
2022-08-16T06:29:07.736Z,22.50
2022-08-16T06:31:46.890Z,21.00
2022-08-16T06:34:55.640Z,20.08
2022-08-16T06:37:07.520Z,24.35
2022-08-16T06:39:49.439Z,18.30
2022-08-16T06:42:47.143Z,19.92
2022-08-16T06:45:35.208Z,23.58
2022-08-16T06:48:11.015Z,17.58
2022-08-16T06:50:38.904Z,26.48
2022-08-16T06:53:10.628Z,18.00
2022-08-16T06:55:53.787Z,21.83
2022-08-16T06:58:31.475Z,19.45
2022-08-16T07:01:10.043Z,23.48
2022-08-16T07:03:55.047Z,24.95
2022-08-16T07:06:27.275Z,21.30
2022-08-16T07:08:59.224Z,20.98
2022-08-16T07:11:47.271Z,22.80
2022-08-16T07:14:23.734Z,21.27
2022-08-16T07:16:57.986Z,20.33
2022-08-16T07:20:04.116Z,19.73
2022-08-16T07:22:36.789Z,23.17
2022-08-16T07:25:04.415Z,21.17
2022-08-16T07:27:33.926Z,22.15
2022-08-16T07:30:39.907Z,19.35
2022-08-16T07:33:03.610Z,19.88
2022-08-16T07:35:32.298Z,20.60
2022-08-16T07:37:59.779Z,20.38
2022-08-16T07:40:59.359Z,20.30
2022-08-16T07:43:29.306Z,18.23
2022-08-16T07:46:01.537Z,19.77
2022-08-16T07:48:32.345Z,25.23
2022-08-16T07:51:01.676Z,23.27
2022-08-16T07:53:35.304Z,19.13
2022-08-16T07:56:11.967Z,20.45
2022-08-16T07:58:43.358Z,23.15
2022-08-16T08:01:16.694Z,22.50
2022-08-16T08:03:52.772Z,22.38
2022-08-16T08:06:32.115Z,21.05
2022-08-16T08:09:07.992Z,19.38
2022-08-16T08:11:35.516Z,20.23
2022-08-16T08:14:07.008Z,18.40
2022-08-16T08:16:45.242Z,21.92
2022-08-16T08:19:21.753Z,22.08
2022-08-16T08:22:01.021Z,17.48
2022-08-16T08:24:44.049Z,16.77
2022-08-16T08:27:12.814Z,18.38
2022-08-16T08:30:50.268Z,19.58
2022-08-16T08:32:57.509Z,18.15
2022-08-16T08:35:28.782Z,20.10
2022-08-16T08:37:58.674Z,20.10
2022-08-16T08:40:29.599Z,17.17
2022-08-16T08:43:11.334Z,19.05
2022-08-16T08:45:46.855Z,16.42
2022-08-16T08:48:33.836Z,15.27
2022-08-16T08:51:08.930Z,21.73
2022-08-16T08:53:43.464Z,19.98
2022-08-16T08:56:23.124Z,19.80
2022-08-16T08:58:59.198Z,22.58
2022-08-16T09:01:43.084Z,22.08
2022-08-16T09:04:24.589Z,20.45
2022-08-16T09:06:53.784Z,18.83
2022-08-16T09:09:23.346Z,20.77
2022-08-16T09:12:05.913Z,17.02
2022-08-16T09:14:49.347Z,22.50
2022-08-16T09:17:49.181Z,20.83
2022-08-16T09:20:10.791Z,18.35
2022-08-16T09:22:41.860Z,19.50
2022-08-16T09:25:12.461Z,20.95
2022-08-16T09:27:56.498Z,22.63
2022-08-16T09:30:33.796Z,15.98
2022-08-16T09:33:06.769Z,22.67
2022-08-16T09:35:39.027Z,18.75
2022-08-16T09:38:08.644Z,19.65
2022-08-16T09:40:42.556Z,17.88
2022-08-16T09:43:46.350Z,17.50
2022-08-16T09:46:01.963Z,14.65
2022-08-16T09:48:44.445Z,18.63
2022-08-16T09:51:18.805Z,16.38
2022-08-16T09:53:53.977Z,19.30
2022-08-16T09:56:31.890Z,19.45
2022-08-16T09:59:05.826Z,17.45
2022-08-16T10:01:43.336Z,17.45
2022-08-16T10:04:31.790Z,16.95
2022-08-16T10:09:44.957Z,16.63
2022-08-16T10:12:42.668Z,20.38
2022-08-16T10:15:18.271Z,16.98
2022-08-16T10:18:00.196Z,18.17
2022-08-16T10:20:28.340Z,14.07
2022-08-16T10:23:05.489Z,19.17
2022-08-16T10:27:16.614Z,14.90
2022-08-16T10:28:27.725Z,18.80
2022-08-16T10:30:58.748Z,17.83
2022-08-16T10:33:29.727Z,18.95
2022-08-16T10:36:03.022Z,20.35
2022-08-16T10:38:32.931Z,16.03
2022-08-16T10:41:01.575Z,19.33
2022-08-16T10:43:31.029Z,16.58
2022-08-16T10:46:00.759Z,16.75
2022-08-16T10:48:29.539Z,14.43
2022-08-16T10:50:59.711Z,14.63
2022-08-16T10:53:32.869Z,15.55
2022-08-16T10:56:52.566Z,13.93
2022-08-16T10:59:29.639Z,15.25
2022-08-16T11:02:56.699Z,14.32
2022-08-16T11:13:21.076Z,18.13
2022-08-16T11:15:54.413Z,17.35
2022-08-16T11:18:47.899Z,15.93
2022-08-16T11:21:29.063Z,19.17
2022-08-16T11:23:58.881Z,17.08
2022-08-16T11:26:33.788Z,14.82
2022-08-16T11:29:16.537Z,16.63
2022-08-16T11:31:45.952Z,20.52
2022-08-16T11:34:22.457Z,16.35
2022-08-16T11:36:59.255Z,20.23
2022-08-16T11:39:31.863Z,15.43
2022-08-16T11:42:02.558Z,20.60
2022-08-16T11:44:52.975Z,20.07
2022-08-16T11:47:24.735Z,20.15
2022-08-16T11:49:52.336Z,17.65
2022-08-16T11:52:23.425Z,15.98
2022-08-16T11:54:57.226Z,19.73
2022-08-16T11:57:28.204Z,17.48
2022-08-16T11:59:56.295Z,18.85
2022-08-16T12:02:32.345Z,19.25
2022-08-16T12:05:00.886Z,15.45
2022-08-16T12:07:28.522Z,18.58
2022-08-16T12:09:57.053Z,19.25
2022-08-16T12:12:24.710Z,17.58
2022-08-16T12:15:00.350Z,14.63
2022-08-16T12:17:32.551Z,18.33
2022-08-16T12:20:04.943Z,15.32
2022-08-16T12:22:36.744Z,15.50
2022-08-16T12:25:15.166Z,19.38
2022-08-16T12:27:44.646Z,14.40
2022-08-16T12:30:26.318Z,17.77
2022-08-16T12:32:59.968Z,15.00
2022-08-16T12:35:32.728Z,15.02
2022-08-16T12:38:01.583Z,14.52
2022-08-16T12:40:52.928Z,12.88
2022-08-16T12:43:23.801Z,17.50
2022-08-16T12:45:53.810Z,15.27
2022-08-16T12:48:47.028Z,14.68
2022-08-16T12:51:22.383Z,11.77
2022-08-16T12:53:54.102Z,10.48
2022-08-16T12:56:25.346Z,10.57
2022-08-16T12:58:56.034Z,10.32
2022-08-16T13:01:29.691Z,8.02
2022-08-16T13:04:12.213Z,10.55
2022-08-16T13:06:48.718Z,14.15
2022-08-16T13:09:28.963Z,9.25
2022-08-16T13:12:09.693Z,10.35
2022-08-16T13:14:41.455Z,10.07
2022-08-16T13:17:18.560Z,10.80
2022-08-16T13:20:08.038Z,11.80
2022-08-16T13:25:17.372Z,13.05
2022-08-16T13:28:14.681Z,8.68
2022-08-16T13:30:41.781Z,13.88
2022-08-16T13:33:30.059Z,11.95
2022-08-16T13:36:00.727Z,14.13
2022-08-16T13:38:37.065Z,14.82
2022-08-16T13:41:08.437Z,14.13
2022-08-16T13:43:39.002Z,16.05
2022-08-16T13:46:07.240Z,18.02
2022-08-16T13:48:44.164Z,19.55
2022-08-16T13:51:15.702Z,20.17
2022-08-16T13:53:54.595Z,16.25
2022-08-16T13:56:26.619Z,14.57
2022-08-16T13:59:19.133Z,11.68
2022-08-16T14:01:55.761Z,12.52
2022-08-16T14:04:30.029Z,14.02
2022-08-16T14:06:59.713Z,12.05
2022-08-16T14:09:28.793Z,13.63
2022-08-16T14:11:58.868Z,12.30
2022-08-16T14:14:31.485Z,12.13
2022-08-16T14:17:02.486Z,9.75
2022-08-16T14:19:30.364Z,14.00
2022-08-16T14:22:14.931Z,20.70
2022-08-16T14:24:45.201Z,12.30
2022-08-16T14:27:21.228Z,18.48
2022-08-16T14:29:51.032Z,14.10
2022-08-16T14:32:33.871Z,17.60
2022-08-16T14:35:10.528Z,11.20
2022-08-16T14:37:39.045Z,11.00
2022-08-16T14:40:13.520Z,9.52
2022-08-16T14:42:44.174Z,11.02
2022-08-16T14:45:14.349Z,10.75
2022-08-16T14:47:41.646Z,15.82
2022-08-16T14:50:13.937Z,12.93
2022-08-16T14:52:56.469Z,11.63
2022-08-16T14:55:27.441Z,11.55
2022-08-16T14:57:55.729Z,13.32
2022-08-16T15:00:32.886Z,15.88
2022-08-16T15:03:02.822Z,14.23
2022-08-16T15:05:32.214Z,13.63
2022-08-16T15:08:00.111Z,15.68
2022-08-16T15:10:29.185Z,15.80
2022-08-16T15:12:58.478Z,14.52
2022-08-16T15:15:28.538Z,10.95
2022-08-16T15:17:57.259Z,13.18
2022-08-16T15:20:31.677Z,11.75
2022-08-16T15:25:41.274Z,13.70
2022-08-16T15:28:30.637Z,10.63
2022-08-16T15:31:04.048Z,8.70
2022-08-16T15:33:34.493Z,10.23
2022-08-16T15:36:02.893Z,10.00
2022-08-16T15:38:56.981Z,8.30
2022-08-16T15:41:43.852Z,10.07
2022-08-16T15:44:14.523Z,13.02
2022-08-16T15:46:56.223Z,12.75
2022-08-16T15:49:34.439Z,14.07
2022-08-16T15:52:07.624Z,13.45
2022-08-16T15:54:52.340Z,13.13
2022-08-16T15:57:25.565Z,13.90
2022-08-16T15:59:55.743Z,14.30
2022-08-16T16:02:31.421Z,15.52
2022-08-16T16:05:09.633Z,20.23
2022-08-16T16:07:40.878Z,18.67
2022-08-16T16:10:23.255Z,24.33
2022-08-16T16:12:59.855Z,18.45
2022-08-16T16:15:29.835Z,15.65
2022-08-16T16:17:57.662Z,21.60
2022-08-16T16:20:28.043Z,13.05
2022-08-16T16:22:59.946Z,11.13
2022-08-16T16:25:29.865Z,11.57
2022-08-16T16:28:00.240Z,12.07
2022-08-16T16:30:33.764Z,12.57
2022-08-16T16:33:21.181Z,15.43
2022-08-16T16:35:55.692Z,16.65
2022-08-16T16:38:29.077Z,15.38
2022-08-16T16:40:58.009Z,12.68
2022-08-16T16:43:31.910Z,16.30
2022-08-16T16:46:32.796Z,12.02
2022-08-16T16:48:52.218Z,15.27
2022-08-16T16:51:20.705Z,14.32
2022-08-16T16:53:56.213Z,13.90
2022-08-16T16:56:31.279Z,16.45
2022-08-16T16:59:02.222Z,12.63
2022-08-16T17:01:35.034Z,14.15
2022-08-16T17:04:24.073Z,17.08
2022-08-16T17:07:03.252Z,13.48
2022-08-16T17:09:30.698Z,18.85
2022-08-16T17:11:59.045Z,14.32
2022-08-16T17:14:33.477Z,11.63
2022-08-16T17:17:13.234Z,13.25
2022-08-16T17:19:41.644Z,13.30
2022-08-16T17:22:14.177Z,14.48
2022-08-16T17:24:50.529Z,14.50
2022-08-16T17:27:32.838Z,17.10
2022-08-16T17:30:29.345Z,14.18
2022-08-16T17:33:03.634Z,15.82
2022-08-16T17:35:34.673Z,14.43
2022-08-16T17:38:05.949Z,13.63
2022-08-16T17:40:47.372Z,15.02
2022-08-16T17:43:33.221Z,13.35
2022-08-16T17:46:01.180Z,11.13
2022-08-16T17:48:31.457Z,12.60
2022-08-16T17:50:59.931Z,10.80
2022-08-16T17:53:27.814Z,13.82
2022-08-16T17:55:55.824Z,14.88
2022-08-16T17:58:24.494Z,13.13
2022-08-16T18:00:55.009Z,16.25
2022-08-16T18:04:02.507Z,14.15
2022-08-16T18:06:24.745Z,15.82
2022-08-16T18:09:00.254Z,13.90
2022-08-16T18:11:30.296Z,14.90
2022-08-16T18:14:00.355Z,13.05
2022-08-16T18:16:27.575Z,10.75
2022-08-16T18:18:54.958Z,12.18
2022-08-16T18:21:43.636Z,7.78
2022-08-16T18:24:12.399Z,7.47
2022-08-16T18:26:42.760Z,9.40
2022-08-16T18:29:10.252Z,6.68
2022-08-16T18:31:38.555Z,8.07
2022-08-16T18:34:05.740Z,8.30
2022-08-16T18:36:33.600Z,6.55
2022-08-16T18:39:01.115Z,6.65
2022-08-16T18:41:30.602Z,7.25
2022-08-16T18:44:24.932Z,8.52
2022-08-16T18:46:51.020Z,6.57
2022-08-16T18:49:19.669Z,6.60
2022-08-16T18:51:47.381Z,7.03
2022-08-16T18:54:18.618Z,5.68
2022-08-16T18:56:53.689Z,7.30
2022-08-16T18:59:29.967Z,7.60
2022-08-16T19:02:00.175Z,5.63
2022-08-16T19:04:56.349Z,7.65
2022-08-16T19:07:20.006Z,7.18
2022-08-16T19:09:47.383Z,8.10
2022-08-16T19:12:16.539Z,10.93
2022-08-16T19:14:45.778Z,9.43
2022-08-16T19:17:13.028Z,12.15
2022-08-16T19:19:44.007Z,10.13
2022-08-16T19:22:11.381Z,11.73
2022-08-16T19:24:39.252Z,13.13
2022-08-16T19:27:10.266Z,12.52
2022-08-16T19:29:37.728Z,11.18
2022-08-16T19:32:15.253Z,15.55
2022-08-16T19:34:42.861Z,10.77
2022-08-16T19:37:10.114Z,13.98
2022-08-16T19:39:38.982Z,14.85
2022-08-16T19:42:17.299Z,15.02
2022-08-16T19:44:46.388Z,11.73
2022-08-16T19:47:14.997Z,14.10
2022-08-16T19:49:42.641Z,15.32
2022-08-16T19:52:19.706Z,13.35
2022-08-16T19:54:49.148Z,12.82
2022-08-16T19:57:17.247Z,21.05
2022-08-16T19:59:45.411Z,18.50
2022-08-16T20:02:25.569Z,18.77
2022-08-16T20:05:04.494Z,21.42
2022-08-16T20:07:33.004Z,20.25
2022-08-16T20:10:00.178Z,20.42
2022-08-16T20:12:29.939Z,20.30
2022-08-16T20:14:57.503Z,18.08
2022-08-16T20:17:25.179Z,18.95
2022-08-16T20:19:52.722Z,20.52
2022-08-16T20:22:51.935Z,20.33
2022-08-16T20:25:18.143Z,22.75
2022-08-16T20:27:46.720Z,24.02
2022-08-16T20:30:16.035Z,22.23
2022-08-16T20:32:45.840Z,23.10
2022-08-16T20:35:16.121Z,25.55
2022-08-16T20:37:44.048Z,23.95
2022-08-16T20:40:28.022Z,27.17
2022-08-16T20:43:06.927Z,29.90
2022-08-16T20:45:35.109Z,26.77
2022-08-16T20:48:03.448Z,26.67
2022-08-16T20:50:30.973Z,31.73
2022-08-16T20:52:58.353Z,28.13
2022-08-16T20:55:28.867Z,26.80
2022-08-16T20:57:56.908Z,28.67
2022-08-16T21:00:24.423Z,32.10
2022-08-16T21:02:51.688Z,27.98
2022-08-16T21:05:25.753Z,31.65
2022-08-16T21:07:58.329Z,28.55
2022-08-16T21:10:26.394Z,29.77
2022-08-16T21:12:56.484Z,34.05
2022-08-16T21:15:25.851Z,29.88
2022-08-16T21:17:53.859Z,31.58
2022-08-16T21:20:22.975Z,29.67
2022-08-16T21:22:55.285Z,31.65
2022-08-16T21:25:24.385Z,31.98
2022-08-16T21:28:40.967Z,29.58
2022-08-16T21:30:40.613Z,32.08
2022-08-16T21:33:13.744Z,33.22
2022-08-16T21:35:44.250Z,31.48
2022-08-16T21:38:28.968Z,30.23
2022-08-16T21:40:59.643Z,30.67
2022-08-16T21:43:32.361Z,30.33
2022-08-16T21:46:04.851Z,30.38
2022-08-16T21:48:35.791Z,36.00
2022-08-16T21:51:12.285Z,31.80
2022-08-16T21:53:40.313Z,40.00
2022-08-16T21:56:17.238Z,37.53
2022-08-16T21:58:53.032Z,39.15
2022-08-16T22:01:23.231Z,40.28
2022-08-16T22:04:03.597Z,38.47
2022-08-16T22:06:39.713Z,41.10
2022-08-16T22:09:12.500Z,42.13
2022-08-16T22:11:39.823Z,45.17
2022-08-16T22:14:07.122Z,45.55
2022-08-16T22:16:38.457Z,42.03
2022-08-16T22:19:06.410Z,42.17
2022-08-16T22:21:35.667Z,44.60
2022-08-16T22:24:07.515Z,41.38
2022-08-16T22:26:40.903Z,43.72
2022-08-16T22:29:12.883Z,41.65
2022-08-16T22:31:42.657Z,43.47
2022-08-16T22:34:10.190Z,43.47
2022-08-16T22:36:38.448Z,44.45
2022-08-16T22:39:09.405Z,47.63
2022-08-16T22:41:38.798Z,45.08
2022-08-16T22:44:07.937Z,47.05
2022-08-16T22:46:36.888Z,48.63
2022-08-16T22:49:05.888Z,41.53
2022-08-16T22:51:35.052Z,36.17
2022-08-16T22:54:34.185Z,32.80
2022-08-16T22:56:50.419Z,35.20
2022-08-16T22:59:17.546Z,34.95
2022-08-16T23:01:45.141Z,34.22
2022-08-16T23:04:12.492Z,33.22
2022-08-16T23:06:39.973Z,30.33
2022-08-16T23:09:07.268Z,32.33
2022-08-16T23:11:34.543Z,33.60
2022-08-16T23:14:02.621Z,37.00
2022-08-16T23:16:34.527Z,38.60
2022-08-16T23:19:08.580Z,39.25
2022-08-16T23:21:37.553Z,40.10
2022-08-16T23:24:08.027Z,37.22
2022-08-16T23:26:46.369Z,37.15
2022-08-16T23:29:25.648Z,35.78
2022-08-16T23:31:56.857Z,34.40
2022-08-16T23:34:25.463Z,35.72
2022-08-16T23:36:53.169Z,38.55
2022-08-16T23:39:20.536Z,36.13
2022-08-16T23:41:48.269Z,39.83
2022-08-16T23:44:55.253Z,36.63
2022-08-16T23:47:03.505Z,36.58
2022-08-16T23:50:01.304Z,37.80
2022-08-16T23:52:40.575Z,38.83
2022-08-16T23:55:07.210Z,35.58
2022-08-16T23:57:34.511Z,38.78
